createdAt,value
2023-03-29T00:00:34.022Z,16.20
2023-03-29T00:01:36.029Z,16.20
2023-03-29T00:02:34.057Z,16.17
2023-03-29T00:03:34.136Z,16.21
2023-03-29T00:04:34.183Z,16.20
2023-03-29T00:05:34.056Z,16.21
2023-03-29T00:06:34.054Z,16.21
2023-03-29T00:07:34.044Z,16.17
2023-03-29T00:08:34.095Z,16.17
2023-03-29T00:09:34.033Z,16.24
2023-03-29T00:10:34.104Z,16.24
2023-03-29T00:11:34.062Z,16.23
2023-03-29T00:12:34.055Z,16.26
2023-03-29T00:13:34.052Z,16.20
2023-03-29T00:14:34.038Z,16.23
2023-03-29T00:15:34.037Z,16.18
2023-03-29T00:16:34.083Z,16.24
2023-03-29T00:17:34.101Z,16.21
2023-03-29T00:18:34.022Z,16.21
2023-03-29T00:19:34.037Z,16.24
2023-03-29T00:20:34.030Z,16.15
2023-03-29T00:21:34.055Z,16.24
2023-03-29T00:22:34.066Z,16.20
2023-03-29T00:23:34.038Z,16.26
2023-03-29T00:24:34.050Z,16.21
2023-03-29T00:25:34.062Z,16.18
2023-03-29T00:26:34.071Z,16.23
2023-03-29T00:27:34.051Z,16.18
2023-03-29T00:28:34.034Z,16.18
2023-03-29T00:29:34.054Z,16.18
2023-03-29T00:30:34.026Z,16.21
2023-03-29T00:31:34.079Z,16.18
2023-03-29T00:32:34.149Z,16.21
2023-03-29T00:33:34.032Z,16.21
2023-03-29T00:34:34.032Z,16.15
2023-03-29T00:35:34.074Z,16.15
2023-03-29T00:36:34.022Z,16.14
2023-03-29T00:37:34.111Z,16.18
2023-03-29T00:38:34.013Z,16.20
2023-03-29T00:39:34.014Z,16.18
2023-03-29T00:40:34.018Z,16.12
2023-03-29T00:41:34.011Z,16.20
2023-03-29T00:42:33.993Z,16.15
2023-03-29T00:43:33.998Z,16.14
2023-03-29T00:44:34.009Z,16.15
2023-03-29T00:45:33.995Z,16.12
2023-03-29T00:46:34.044Z,16.20
2023-03-29T00:47:34.095Z,16.18
2023-03-29T00:48:33.997Z,16.24
2023-03-29T00:49:33.989Z,16.27
2023-03-29T00:50:34.137Z,16.24
2023-03-29T00:51:33.972Z,16.31
2023-03-29T00:52:33.970Z,16.31
2023-03-29T00:53:33.951Z,16.28
2023-03-29T00:54:33.951Z,16.33
2023-03-29T00:55:33.950Z,16.31
2023-03-29T00:56:33.968Z,16.37
2023-03-29T00:57:33.991Z,16.37
2023-03-29T00:58:33.941Z,16.31
2023-03-29T00:59:33.945Z,16.37
2023-03-29T01:00:33.948Z,16.34
2023-03-29T01:01:34.094Z,16.37
2023-03-29T01:02:33.965Z,16.36
2023-03-29T01:03:33.953Z,16.40
2023-03-29T01:04:33.964Z,16.38
2023-03-29T01:05:33.965Z,16.41
2023-03-29T01:06:34.008Z,16.40
2023-03-29T01:07:33.908Z,16.49
2023-03-29T01:08:33.904Z,16.40
2023-03-29T01:09:33.903Z,16.41
2023-03-29T01:10:33.911Z,16.46
2023-03-29T01:11:33.897Z,16.49
2023-03-29T01:12:33.890Z,16.43
2023-03-29T01:13:33.891Z,16.44
2023-03-29T01:14:33.899Z,16.40
2023-03-29T01:15:33.875Z,16.43
2023-03-29T01:16:33.915Z,16.43
2023-03-29T01:17:33.924Z,16.40
2023-03-29T01:18:33.869Z,16.39
2023-03-29T01:19:33.889Z,16.40
2023-03-29T01:20:33.876Z,16.41
2023-03-29T01:21:33.877Z,16.43
2023-03-29T01:22:33.891Z,16.47
2023-03-29T01:23:33.842Z,16.46
2023-03-29T01:24:33.835Z,16.43
2023-03-29T01:25:33.839Z,16.47
2023-03-29T01:26:33.849Z,16.47
2023-03-29T01:27:33.838Z,16.49
2023-03-29T01:28:33.858Z,16.46
2023-03-29T01:29:33.829Z,16.49
2023-03-29T01:30:33.816Z,16.50
2023-03-29T01:31:33.875Z,16.52
2023-03-29T01:32:33.853Z,16.50
2023-03-29T01:33:33.809Z,16.53
2023-03-29T01:34:33.808Z,16.53
2023-03-29T01:35:33.833Z,16.52
2023-03-29T01:36:33.814Z,16.59
2023-03-29T01:37:33.815Z,16.56
2023-03-29T01:38:33.801Z,16.57
2023-03-29T01:39:33.784Z,16.60
2023-03-29T01:40:33.788Z,16.56
2023-03-29T01:41:33.793Z,16.59
2023-03-29T01:42:33.780Z,16.60
2023-03-29T01:43:33.781Z,16.62
2023-03-29T01:44:33.775Z,16.66
2023-03-29T01:45:33.787Z,16.63
2023-03-29T01:46:33.879Z,16.66
2023-03-29T01:47:33.828Z,16.70
2023-03-29T01:48:33.780Z,16.67
2023-03-29T01:49:33.778Z,16.70
2023-03-29T01:50:33.777Z,16.72
2023-03-29T01:51:33.766Z,16.65
2023-03-29T01:52:33.783Z,16.75
2023-03-29T01:53:33.781Z,16.73
2023-03-29T01:54:33.788Z,16.78
2023-03-29T01:55:33.778Z,16.79
2023-03-29T01:56:33.772Z,16.81
2023-03-29T01:57:33.783Z,16.84
2023-03-29T01:58:33.811Z,16.84
2023-03-29T01:59:33.779Z,16.82
2023-03-29T02:00:33.784Z,16.85
2023-03-29T02:01:33.805Z,16.86
2023-03-29T02:02:33.838Z,16.85
2023-03-29T02:03:33.899Z,16.88
2023-03-29T02:04:33.745Z,16.88
2023-03-29T02:05:33.779Z,16.91
2023-03-29T02:06:33.764Z,16.92
2023-03-29T02:07:33.736Z,16.92
2023-03-29T02:08:33.748Z,16.98
2023-03-29T02:09:33.745Z,16.97
2023-03-29T02:10:33.742Z,16.97
2023-03-29T02:11:33.737Z,16.99
2023-03-29T02:12:33.748Z,17.04
2023-03-29T02:13:33.740Z,17.08
2023-03-29T02:14:33.744Z,17.04
2023-03-29T02:15:33.817Z,17.07
2023-03-29T02:16:33.723Z,17.04
2023-03-29T02:17:33.741Z,17.04
2023-03-29T02:18:33.709Z,17.08
2023-03-29T02:19:33.711Z,17.01
2023-03-29T02:20:33.712Z,17.11
2023-03-29T02:21:33.724Z,17.03
2023-03-29T02:22:33.725Z,17.15
2023-03-29T02:23:33.718Z,17.20
2023-03-29T02:24:33.717Z,17.11
2023-03-29T02:25:33.721Z,17.21
2023-03-29T02:26:33.715Z,17.17
2023-03-29T02:27:33.696Z,17.20
2023-03-29T02:28:33.738Z,17.21
2023-03-29T02:29:33.712Z,17.18
2023-03-29T02:30:33.703Z,17.27
2023-03-29T02:31:33.737Z,17.30
2023-03-29T02:32:33.719Z,17.23
2023-03-29T02:33:33.694Z,17.26
2023-03-29T02:34:33.694Z,17.30
2023-03-29T02:35:33.682Z,17.31
2023-03-29T02:36:33.678Z,17.31
2023-03-29T02:37:33.726Z,17.33
2023-03-29T02:38:33.669Z,17.39
2023-03-29T02:39:33.671Z,17.37
2023-03-29T02:40:33.677Z,17.40
2023-03-29T02:41:33.656Z,17.37
2023-03-29T02:42:33.660Z,17.43
2023-03-29T02:43:33.667Z,17.42
2023-03-29T02:44:33.641Z,17.43
2023-03-29T02:45:33.649Z,17.45
2023-03-29T02:46:33.653Z,17.46
2023-03-29T02:47:33.668Z,17.45
2023-03-29T02:48:33.652Z,17.49
2023-03-29T02:49:33.658Z,17.53
2023-03-29T02:50:33.676Z,17.55
2023-03-29T02:51:33.639Z,17.55
2023-03-29T02:52:33.659Z,17.53
2023-03-29T02:53:33.646Z,17.59
2023-03-29T02:54:33.638Z,17.55
2023-03-29T02:55:33.640Z,17.55
2023-03-29T02:56:33.624Z,17.63
2023-03-29T02:57:33.630Z,17.50
2023-03-29T02:58:33.643Z,17.53
2023-03-29T02:59:33.637Z,17.53
2023-03-29T03:00:33.640Z,17.55
2023-03-29T03:01:33.665Z,17.59
2023-03-29T03:02:33.673Z,17.62
2023-03-29T03:03:33.726Z,17.62
2023-03-29T03:04:33.591Z,17.65
2023-03-29T03:05:33.623Z,17.56
2023-03-29T03:06:33.624Z,17.62
2023-03-29T03:07:33.622Z,17.63
2023-03-29T03:08:33.606Z,17.68
2023-03-29T03:09:33.596Z,17.63
2023-03-29T03:10:33.590Z,17.65
2023-03-29T03:11:33.615Z,17.72
2023-03-29T03:12:33.591Z,17.67
2023-03-29T03:13:33.600Z,17.65
2023-03-29T03:14:33.586Z,17.69
2023-03-29T03:15:33.584Z,17.67
2023-03-29T03:16:33.652Z,17.66
2023-03-29T03:17:33.641Z,17.75
2023-03-29T03:18:33.586Z,17.68
2023-03-29T03:19:33.566Z,17.71
2023-03-29T03:20:33.623Z,17.74
2023-03-29T03:21:33.603Z,17.71
2023-03-29T03:22:33.560Z,17.75
2023-03-29T03:23:33.551Z,17.68
2023-03-29T03:24:33.546Z,17.72
2023-03-29T03:25:33.553Z,17.77
2023-03-29T03:26:33.581Z,17.78
2023-03-29T03:27:33.542Z,17.79
2023-03-29T03:28:33.562Z,17.79
2023-03-29T03:29:33.563Z,17.75
2023-03-29T03:30:33.543Z,17.78
2023-03-29T03:31:33.620Z,17.78
2023-03-29T03:32:33.581Z,17.78
2023-03-29T03:33:33.561Z,17.79
2023-03-29T03:34:33.537Z,17.79
2023-03-29T03:35:33.566Z,17.78
2023-03-29T03:36:33.522Z,17.79
2023-03-29T03:37:33.543Z,17.84
2023-03-29T03:38:33.536Z,17.83
2023-03-29T03:39:33.563Z,17.79
2023-03-29T03:40:33.563Z,17.85
2023-03-29T03:41:33.531Z,17.85
2023-03-29T03:42:33.534Z,17.85
2023-03-29T03:43:33.510Z,17.84
2023-03-29T03:44:33.505Z,17.83
2023-03-29T03:45:33.573Z,17.85
2023-03-29T03:46:33.505Z,17.88
2023-03-29T03:47:33.524Z,17.89
2023-03-29T03:48:33.497Z,17.84
2023-03-29T03:49:33.494Z,17.88
2023-03-29T03:50:33.480Z,17.88
2023-03-29T03:51:33.501Z,17.93
2023-03-29T03:52:33.496Z,17.90
2023-03-29T03:53:33.485Z,17.90
2023-03-29T03:54:33.473Z,17.87
2023-03-29T03:55:33.463Z,17.93
2023-03-29T03:56:33.490Z,17.87
2023-03-29T03:57:33.470Z,17.91
2023-03-29T03:58:33.468Z,17.90
2023-03-29T03:59:33.470Z,17.97
2023-03-29T04:00:33.484Z,17.90
2023-03-29T04:01:33.467Z,17.91
2023-03-29T04:02:33.628Z,17.94
2023-03-29T04:03:33.524Z,17.94
2023-03-29T04:04:33.509Z,17.96
2023-03-29T04:05:33.485Z,17.96
2023-03-29T04:06:33.474Z,17.97
2023-03-29T04:07:33.472Z,17.98
2023-03-29T04:08:33.468Z,17.94
2023-03-29T04:09:33.516Z,17.97
2023-03-29T04:10:33.458Z,18.00
2023-03-29T04:11:33.477Z,17.98
2023-03-29T04:12:33.457Z,17.95
2023-03-29T04:13:33.465Z,17.94
2023-03-29T04:14:33.455Z,17.96
2023-03-29T04:15:33.483Z,17.93
2023-03-29T04:16:33.458Z,17.98
2023-03-29T04:17:33.610Z,18.00
2023-03-29T04:18:33.580Z,18.03
2023-03-29T04:19:33.470Z,18.07
2023-03-29T04:20:33.468Z,17.97
2023-03-29T04:21:33.460Z,18.01
2023-03-29T04:22:33.446Z,18.03
2023-03-29T04:23:33.446Z,18.01
2023-03-29T04:24:33.454Z,18.04
2023-03-29T04:25:33.462Z,18.03
2023-03-29T04:26:33.435Z,17.97
2023-03-29T04:27:33.446Z,18.01
2023-03-29T04:28:33.453Z,18.04
2023-03-29T04:29:33.533Z,18.04
2023-03-29T04:30:33.423Z,18.06
2023-03-29T04:31:33.463Z,18.07
2023-03-29T04:32:33.490Z,18.03
2023-03-29T04:33:33.477Z,18.02
2023-03-29T04:34:33.450Z,18.03
2023-03-29T04:35:33.606Z,17.98
2023-03-29T04:36:33.440Z,18.07
2023-03-29T04:37:33.465Z,18.04
2023-03-29T04:38:33.476Z,18.04
2023-03-29T04:39:33.455Z,18.04
2023-03-29T04:40:33.470Z,18.10
2023-03-29T04:41:33.448Z,18.13
2023-03-29T04:42:33.436Z,18.07
2023-03-29T04:43:33.457Z,18.09
2023-03-29T04:44:33.511Z,18.09
2023-03-29T04:45:33.454Z,18.08
2023-03-29T04:46:33.536Z,18.11
2023-03-29T04:47:33.486Z,18.09
2023-03-29T04:48:33.456Z,18.06
2023-03-29T04:49:33.473Z,18.10
2023-03-29T04:50:33.466Z,18.05
2023-03-29T04:51:33.503Z,18.13
2023-03-29T04:52:33.544Z,18.12
2023-03-29T04:53:33.528Z,18.12
2023-03-29T04:54:33.547Z,18.14
2023-03-29T04:55:33.530Z,18.12
2023-03-29T04:56:33.541Z,18.07
2023-03-29T04:57:33.579Z,18.11
2023-03-29T04:58:33.578Z,18.07
2023-03-29T04:59:33.585Z,18.13
2023-03-29T05:00:33.614Z,18.16
2023-03-29T05:01:33.632Z,18.14
2023-03-29T05:02:33.660Z,18.14
2023-03-29T05:03:33.646Z,18.17
2023-03-29T05:04:33.656Z,18.16
2023-03-29T05:05:33.656Z,18.17
2023-03-29T05:06:33.666Z,18.19
2023-03-29T05:07:33.639Z,18.10
2023-03-29T05:08:33.675Z,18.13
2023-03-29T05:09:35.523Z,18.16
2023-03-29T05:10:33.672Z,18.17
2023-03-29T05:11:33.703Z,18.23
2023-03-29T05:12:33.697Z,18.19
2023-03-29T05:13:33.705Z,18.17
2023-03-29T05:14:33.719Z,18.20
2023-03-29T05:15:33.704Z,18.23
2023-03-29T05:16:33.764Z,18.22
2023-03-29T05:17:33.746Z,18.26
2023-03-29T05:18:33.743Z,18.20
2023-03-29T05:19:33.714Z,18.24
2023-03-29T05:20:33.741Z,18.24
2023-03-29T05:21:33.731Z,18.23
2023-03-29T05:22:33.739Z,18.25
2023-03-29T05:23:33.743Z,18.26
2023-03-29T05:24:33.726Z,18.27
2023-03-29T05:25:33.992Z,18.33
2023-03-29T05:26:33.734Z,18.23
2023-03-29T05:27:33.744Z,18.26
2023-03-29T05:28:33.818Z,18.27
2023-03-29T05:29:33.759Z,18.28
2023-03-29T05:30:33.794Z,18.32
2023-03-29T05:31:33.793Z,18.32
2023-03-29T05:32:33.810Z,18.50
2023-03-29T05:33:33.834Z,18.52
2023-03-29T05:34:33.808Z,18.95
2023-03-29T05:35:33.898Z,18.83
2023-03-29T05:36:33.846Z,18.77
2023-03-29T05:37:33.855Z,18.88
2023-03-29T05:38:33.946Z,18.95
2023-03-29T05:39:36.406Z,19.09
2023-03-29T05:40:33.926Z,19.35
2023-03-29T05:41:33.931Z,19.48
2023-03-29T05:42:33.930Z,19.75
2023-03-29T05:43:33.907Z,19.80
2023-03-29T05:44:33.903Z,20.00
2023-03-29T05:45:33.951Z,19.88
2023-03-29T05:46:33.901Z,19.91
2023-03-29T05:47:33.885Z,20.07
2023-03-29T05:48:33.862Z,20.07
2023-03-29T05:49:33.849Z,20.23
2023-03-29T05:50:33.872Z,20.23
2023-03-29T05:51:33.859Z,20.09
2023-03-29T05:52:33.832Z,20.15
2023-03-29T05:53:33.838Z,20.07
2023-03-29T05:54:33.820Z,19.89
2023-03-29T05:55:33.846Z,20.09
2023-03-29T05:56:33.827Z,19.96
2023-03-29T05:57:33.811Z,19.86
2023-03-29T05:58:33.800Z,19.96
2023-03-29T05:59:33.821Z,20.21
2023-03-29T06:00:33.813Z,19.97
2023-03-29T06:01:33.786Z,20.32
2023-03-29T06:02:33.886Z,20.23
2023-03-29T06:03:33.975Z,20.20
2023-03-29T06:04:34.007Z,20.21
2023-03-29T06:05:33.792Z,20.90
2023-03-29T06:06:33.745Z,20.90
2023-03-29T06:07:33.745Z,20.74
2023-03-29T06:08:33.797Z,20.69
2023-03-29T06:09:33.717Z,20.67
2023-03-29T06:10:33.787Z,20.69
2023-03-29T06:11:33.726Z,20.75
2023-03-29T06:12:33.715Z,20.75
2023-03-29T06:13:33.694Z,20.72
2023-03-29T06:14:33.697Z,20.76
2023-03-29T06:15:33.702Z,20.93
2023-03-29T06:16:33.756Z,20.81
2023-03-29T06:17:33.798Z,20.81
2023-03-29T06:18:33.693Z,20.79
2023-03-29T06:19:33.676Z,20.94
2023-03-29T06:20:33.676Z,20.98
2023-03-29T06:21:33.732Z,20.97
2023-03-29T06:22:33.771Z,20.91
2023-03-29T06:23:33.795Z,21.03
2023-03-29T06:24:33.857Z,21.03
2023-03-29T06:25:33.891Z,21.00
2023-03-29T06:26:33.952Z,21.00
2023-03-29T06:27:33.969Z,21.06
2023-03-29T06:28:34.006Z,21.00
2023-03-29T06:29:34.026Z,21.14
2023-03-29T06:30:34.073Z,21.15
2023-03-29T06:31:34.629Z,21.30
2023-03-29T06:32:34.142Z,21.18
2023-03-29T06:33:34.232Z,21.15
2023-03-29T06:34:35.518Z,21.20
2023-03-29T06:35:34.303Z,21.18
2023-03-29T06:36:34.314Z,21.21
2023-03-29T06:37:34.337Z,21.11
2023-03-29T06:38:34.359Z,21.27
2023-03-29T06:39:34.390Z,21.46
2023-03-29T06:40:34.397Z,21.64
2023-03-29T06:41:34.409Z,21.62
2023-03-29T06:42:34.452Z,21.73
2023-03-29T06:43:34.464Z,21.54
2023-03-29T06:44:34.486Z,21.65
2023-03-29T06:45:34.512Z,21.56
2023-03-29T06:46:35.351Z,21.56
2023-03-29T06:47:35.051Z,21.66
2023-03-29T06:48:34.605Z,21.79
2023-03-29T06:49:34.630Z,21.62
2023-03-29T06:50:34.642Z,21.62
2023-03-29T06:51:35.431Z,21.75
2023-03-29T06:52:35.023Z,21.82
2023-03-29T06:53:34.662Z,21.81
2023-03-29T06:54:34.660Z,21.80
2023-03-29T06:55:34.681Z,21.67
2023-03-29T06:56:34.680Z,21.57
2023-03-29T06:57:34.704Z,21.65
2023-03-29T06:58:34.721Z,21.55
2023-03-29T06:59:35.021Z,21.55
2023-03-29T07:00:34.726Z,21.59
2023-03-29T07:01:34.920Z,21.59
2023-03-29T07:02:35.175Z,21.57
2023-03-29T07:03:34.787Z,21.55
2023-03-29T07:04:34.818Z,21.51
2023-03-29T07:05:34.781Z,21.55
2023-03-29T07:06:34.808Z,21.45
2023-03-29T07:07:35.036Z,21.32
2023-03-29T07:08:34.842Z,21.45
2023-03-29T07:09:34.840Z,21.46
2023-03-29T07:10:34.861Z,21.46
2023-03-29T07:11:34.893Z,21.45
2023-03-29T07:12:34.883Z,21.48
2023-03-29T07:13:34.965Z,21.44
2023-03-29T07:14:34.928Z,21.45
2023-03-29T07:15:34.933Z,21.45
2023-03-29T07:16:35.004Z,21.51
2023-03-29T07:17:35.102Z,21.51
2023-03-29T07:18:34.972Z,21.50
2023-03-29T07:19:34.995Z,21.50
2023-03-29T07:20:34.991Z,21.49
2023-03-29T07:21:36.692Z,21.47
2023-03-29T07:22:34.977Z,21.49
2023-03-29T07:23:34.967Z,21.55
2023-03-29T07:24:34.982Z,21.52
2023-03-29T07:25:34.964Z,21.39
2023-03-29T07:26:34.947Z,21.59
2023-03-29T07:27:35.049Z,21.46
2023-03-29T07:28:35.039Z,21.35
2023-03-29T07:29:34.926Z,21.31
2023-03-29T07:30:34.930Z,21.25
2023-03-29T07:31:34.913Z,21.28
2023-03-29T07:32:35.009Z,21.29
2023-03-29T07:33:35.157Z,21.26
2023-03-29T07:34:34.909Z,21.26
2023-03-29T07:35:35.102Z,21.24
2023-03-29T07:36:34.883Z,21.29
2023-03-29T07:37:35.055Z,21.33
2023-03-29T07:38:34.869Z,21.22
2023-03-29T07:39:34.888Z,21.22
2023-03-29T07:40:34.863Z,21.21
2023-03-29T07:41:34.863Z,21.18
2023-03-29T07:42:34.846Z,21.17
2023-03-29T07:43:34.831Z,21.09
2023-03-29T07:44:34.820Z,21.14
2023-03-29T07:45:34.835Z,21.05
2023-03-29T07:46:34.837Z,21.11
2023-03-29T07:47:34.901Z,21.04
2023-03-29T07:48:34.791Z,20.99
2023-03-29T07:49:35.047Z,20.93
2023-03-29T07:50:34.813Z,20.95
2023-03-29T07:51:34.773Z,20.92
2023-03-29T07:52:34.766Z,20.85
2023-03-29T07:53:34.753Z,20.76
2023-03-29T07:54:34.795Z,20.71
2023-03-29T07:55:34.769Z,20.74
2023-03-29T07:56:34.751Z,20.67
2023-03-29T07:57:34.755Z,20.55
2023-03-29T07:58:34.763Z,20.52
2023-03-29T07:59:35.049Z,20.55
2023-03-29T08:00:34.812Z,20.54
2023-03-29T08:01:34.724Z,20.46
2023-03-29T08:02:34.706Z,20.49
2023-03-29T08:03:34.761Z,20.48
2023-03-29T08:04:34.781Z,20.38
2023-03-29T08:05:41.296Z,20.32
2023-03-29T08:06:35.660Z,20.38
2023-03-29T08:07:34.668Z,20.33
2023-03-29T08:08:34.674Z,20.36
2023-03-29T08:09:34.646Z,20.36
2023-03-29T08:10:34.661Z,20.27
2023-03-29T08:11:34.649Z,20.33
2023-03-29T08:12:34.652Z,20.28
2023-03-29T08:13:34.624Z,20.24
2023-03-29T08:14:34.614Z,20.25
2023-03-29T08:15:35.072Z,20.25
2023-03-29T08:16:34.665Z,20.22
2023-03-29T08:17:34.649Z,20.29
2023-03-29T08:18:35.097Z,20.27
2023-03-29T08:19:34.594Z,20.21
2023-03-29T08:20:35.052Z,20.18
2023-03-29T08:21:34.572Z,20.17
2023-03-29T08:22:34.584Z,20.20
2023-03-29T08:23:34.566Z,20.25
2023-03-29T08:24:34.590Z,20.34
2023-03-29T08:25:34.552Z,20.23
2023-03-29T08:26:34.544Z,20.24
2023-03-29T08:27:34.566Z,20.29
2023-03-29T08:28:34.589Z,20.30
2023-03-29T08:29:34.649Z,20.32
2023-03-29T08:30:34.623Z,20.27
2023-03-29T08:31:34.819Z,20.26
2023-03-29T08:32:34.662Z,20.26
2023-03-29T08:33:34.655Z,20.28
2023-03-29T08:34:34.661Z,20.26
2023-03-29T08:35:34.791Z,20.31
2023-03-29T08:36:34.688Z,20.18
2023-03-29T08:37:34.672Z,20.26
2023-03-29T08:38:34.709Z,20.29
2023-03-29T08:39:34.705Z,20.39
2023-03-29T08:40:34.751Z,20.51
2023-03-29T08:41:34.718Z,20.59
2023-03-29T08:42:34.734Z,20.69
2023-03-29T08:43:35.061Z,20.74
2023-03-29T08:44:34.697Z,20.75
2023-03-29T08:45:34.717Z,20.68
2023-03-29T08:46:35.661Z,20.87
2023-03-29T08:47:34.723Z,20.93
2023-03-29T08:48:34.715Z,21.00
2023-03-29T08:49:34.731Z,21.02
2023-03-29T08:50:34.729Z,21.12
2023-03-29T08:51:34.736Z,21.10
2023-03-29T08:52:34.752Z,21.18
2023-03-29T08:53:34.811Z,21.25
2023-03-29T08:54:34.796Z,21.25
2023-03-29T08:55:34.748Z,21.32
2023-03-29T08:56:34.775Z,21.34
2023-03-29T08:57:34.785Z,21.41
2023-03-29T08:58:34.865Z,21.50
2023-03-29T08:59:34.892Z,21.55
2023-03-29T09:00:34.841Z,21.72
2023-03-29T09:01:35.018Z,21.59
2023-03-29T09:02:35.056Z,21.74
2023-03-29T09:03:35.030Z,21.89
2023-03-29T09:04:35.023Z,21.89
2023-03-29T09:05:35.064Z,21.90
2023-03-29T09:06:35.139Z,21.97
2023-03-29T09:07:35.153Z,21.81
2023-03-29T09:08:35.165Z,21.74
2023-03-29T09:09:35.262Z,21.80
2023-03-29T09:10:35.257Z,21.86
2023-03-29T09:11:35.328Z,21.82
2023-03-29T09:12:36.605Z,21.85
2023-03-29T09:13:35.483Z,21.92
2023-03-29T09:14:35.528Z,21.97
2023-03-29T09:15:35.562Z,21.97
2023-03-29T09:16:35.643Z,22.08
2023-03-29T09:17:36.113Z,22.06
2023-03-29T09:18:35.747Z,22.02
2023-03-29T09:19:35.798Z,22.10
2023-03-29T09:20:35.848Z,21.97
2023-03-29T09:21:35.924Z,22.07
2023-03-29T09:22:35.966Z,22.03
2023-03-29T09:23:36.017Z,22.00
2023-03-29T09:24:36.079Z,21.99
2023-03-29T09:25:41.075Z,21.97
2023-03-29T09:26:37.154Z,21.81
2023-03-29T09:27:36.636Z,21.52
2023-03-29T09:28:36.105Z,21.36
2023-03-29T09:29:36.131Z,20.94
2023-03-29T09:30:36.091Z,20.86
2023-03-29T09:31:36.146Z,20.84
2023-03-29T09:32:36.190Z,20.36
2023-03-29T09:33:36.081Z,20.22
2023-03-29T09:34:36.066Z,20.77
2023-03-29T09:35:36.142Z,20.82
2023-03-29T09:36:36.043Z,21.46
2023-03-29T09:37:36.062Z,21.55
2023-03-29T09:38:36.039Z,21.91
2023-03-29T09:39:36.024Z,21.84
2023-03-29T09:40:36.035Z,21.61
2023-03-29T09:41:36.020Z,21.60
2023-03-29T09:42:36.004Z,21.57
2023-03-29T09:43:35.999Z,21.61
2023-03-29T09:44:36.076Z,21.69
2023-03-29T09:45:35.996Z,21.79
2023-03-29T09:46:35.997Z,21.82
2023-03-29T09:47:36.055Z,21.82
2023-03-29T09:48:36.108Z,21.88
2023-03-29T09:49:36.129Z,21.91
2023-03-29T09:50:36.180Z,22.06
2023-03-29T09:51:36.230Z,22.13
2023-03-29T09:52:36.289Z,22.13
2023-03-29T09:53:36.343Z,22.00
2023-03-29T09:54:36.400Z,22.03
2023-03-29T09:55:36.451Z,22.07
2023-03-29T09:56:36.518Z,22.12
2023-03-29T09:57:36.591Z,22.13
2023-03-29T09:58:36.629Z,22.11
2023-03-29T09:59:36.679Z,22.03
2023-03-29T10:00:36.800Z,22.11
2023-03-29T10:01:36.791Z,22.05
2023-03-29T10:02:36.845Z,22.08
2023-03-29T10:03:37.137Z,22.02
2023-03-29T10:04:37.181Z,21.98
2023-03-29T10:05:36.971Z,21.97
2023-03-29T10:06:37.010Z,21.96
2023-03-29T10:07:37.055Z,22.00
2023-03-29T10:08:37.105Z,22.06
2023-03-29T10:09:37.609Z,21.94
2023-03-29T10:10:37.186Z,21.71
2023-03-29T10:11:37.245Z,21.72
2023-03-29T10:12:37.251Z,21.43
2023-03-29T10:13:37.309Z,21.33
2023-03-29T10:14:37.362Z,20.86
2023-03-29T10:15:37.412Z,21.12
2023-03-29T10:16:37.478Z,20.99
2023-03-29T10:17:37.553Z,21.04
2023-03-29T10:18:37.553Z,21.01
2023-03-29T10:19:38.123Z,21.12
2023-03-29T10:20:37.684Z,20.92
2023-03-29T10:21:37.731Z,20.94
2023-03-29T10:22:37.880Z,20.97
2023-03-29T10:23:37.820Z,21.00
2023-03-29T10:24:38.129Z,21.04
2023-03-29T10:25:39.215Z,21.08
2023-03-29T10:26:37.869Z,21.08
2023-03-29T10:27:37.852Z,21.11
2023-03-29T10:28:37.791Z,21.10
2023-03-29T10:29:37.825Z,21.07
2023-03-29T10:30:37.773Z,21.10
2023-03-29T10:31:37.805Z,21.05
2023-03-29T10:32:37.949Z,20.99
2023-03-29T10:33:37.788Z,21.04
2023-03-29T10:34:37.744Z,20.99
2023-03-29T10:35:37.820Z,20.96
2023-03-29T10:36:37.730Z,20.94
2023-03-29T10:37:37.745Z,20.90
2023-03-29T10:38:37.744Z,20.95
2023-03-29T10:39:37.744Z,20.90
2023-03-29T10:40:37.713Z,20.93
2023-03-29T10:41:37.701Z,20.86
2023-03-29T10:42:37.682Z,20.85
2023-03-29T10:43:37.705Z,20.79
2023-03-29T10:44:37.687Z,20.82
2023-03-29T10:45:37.665Z,20.80
2023-03-29T10:46:37.735Z,20.72
2023-03-29T10:47:37.664Z,20.73
2023-03-29T10:48:37.642Z,20.67
2023-03-29T10:49:37.657Z,20.64
2023-03-29T10:50:37.617Z,20.60
2023-03-29T10:51:37.617Z,20.54
2023-03-29T10:52:37.617Z,20.43
2023-03-29T10:53:37.638Z,20.31
2023-03-29T10:54:37.610Z,20.39
2023-03-29T10:55:37.628Z,20.54
2023-03-29T10:56:37.620Z,20.83
2023-03-29T10:57:37.843Z,20.77
2023-03-29T10:58:37.593Z,20.95
2023-03-29T10:59:37.680Z,21.11
2023-03-29T11:00:37.642Z,21.17
2023-03-29T11:01:37.813Z,21.15
2023-03-29T11:02:37.836Z,20.96
2023-03-29T11:03:37.994Z,20.86
2023-03-29T11:04:37.855Z,20.89
2023-03-29T11:05:37.921Z,20.85
2023-03-29T11:06:38.018Z,20.80
2023-03-29T11:07:38.071Z,20.79
2023-03-29T11:08:38.082Z,20.76
2023-03-29T11:09:38.165Z,20.76
2023-03-29T11:10:38.224Z,20.63
2023-03-29T11:11:38.295Z,20.71
2023-03-29T11:12:38.326Z,20.65
2023-03-29T11:13:38.372Z,20.62
2023-03-29T11:14:38.431Z,20.59
2023-03-29T11:15:38.747Z,20.61
2023-03-29T11:16:38.517Z,20.61
2023-03-29T11:17:38.632Z,20.51
2023-03-29T11:18:38.624Z,20.46
2023-03-29T11:19:38.648Z,20.48
2023-03-29T11:20:38.722Z,20.48
2023-03-29T11:21:38.770Z,20.40
2023-03-29T11:22:38.816Z,20.42
2023-03-29T11:23:38.864Z,20.38
2023-03-29T11:24:38.917Z,20.31
2023-03-29T11:25:38.940Z,20.31
2023-03-29T11:26:38.990Z,20.28
2023-03-29T11:27:39.019Z,20.23
2023-03-29T11:28:39.075Z,20.28
2023-03-29T11:29:39.119Z,20.23
2023-03-29T11:30:39.168Z,20.25
2023-03-29T11:31:39.320Z,20.19
2023-03-29T11:32:39.244Z,20.18
2023-03-29T11:33:39.292Z,20.16
2023-03-29T11:34:39.327Z,20.15
2023-03-29T11:35:39.428Z,20.13
2023-03-29T11:36:39.438Z,20.15
2023-03-29T11:37:39.474Z,20.06
2023-03-29T11:38:39.504Z,20.06
2023-03-29T11:39:39.547Z,20.06
2023-03-29T11:40:39.586Z,20.03
2023-03-29T11:41:39.648Z,19.99
2023-03-29T11:42:39.657Z,20.00
2023-03-29T11:43:39.720Z,20.01
2023-03-29T11:44:39.725Z,19.99
2023-03-29T11:45:39.798Z,19.93
2023-03-29T11:46:39.853Z,19.92
2023-03-29T11:47:39.952Z,19.95
2023-03-29T11:48:39.883Z,19.91
2023-03-29T11:49:39.937Z,19.95
2023-03-29T11:50:39.937Z,19.86
2023-03-29T11:51:40.011Z,19.89
2023-03-29T11:52:40.098Z,19.91
2023-03-29T11:53:40.046Z,19.89
2023-03-29T11:54:40.631Z,19.85
2023-03-29T11:55:40.136Z,19.89
2023-03-29T11:56:40.225Z,19.87
2023-03-29T11:57:40.671Z,19.90
2023-03-29T11:58:40.215Z,19.86
2023-03-29T11:59:40.258Z,19.90
2023-03-29T12:00:40.287Z,19.84
2023-03-29T12:01:40.341Z,19.93
2023-03-29T12:02:40.882Z,19.87
2023-03-29T12:03:40.546Z,19.93
2023-03-29T12:04:40.428Z,19.89
2023-03-29T12:05:40.469Z,19.90
2023-03-29T12:06:40.488Z,19.90
2023-03-29T12:07:40.576Z,19.93
2023-03-29T12:08:40.583Z,19.88
2023-03-29T12:09:40.656Z,19.89
2023-03-29T12:10:40.670Z,19.96
2023-03-29T12:11:40.705Z,19.91
2023-03-29T12:12:41.172Z,19.90
2023-03-29T12:13:40.754Z,19.88
2023-03-29T12:14:40.813Z,19.85
2023-03-29T12:15:40.858Z,19.88
2023-03-29T12:16:41.011Z,19.91
2023-03-29T12:17:40.971Z,19.88
2023-03-29T12:18:41.008Z,19.91
2023-03-29T12:19:43.554Z,19.90
2023-03-29T12:20:40.999Z,19.88
2023-03-29T12:21:41.032Z,19.90
2023-03-29T12:22:40.997Z,19.90
2023-03-29T12:23:41.008Z,19.91
2023-03-29T12:24:40.971Z,19.93
2023-03-29T12:25:40.947Z,19.93
2023-03-29T12:26:40.990Z,19.93
2023-03-29T12:27:40.945Z,19.91
2023-03-29T12:28:40.980Z,19.88
2023-03-29T12:29:40.954Z,19.94
2023-03-29T12:30:40.945Z,19.95
2023-03-29T12:31:40.996Z,19.94
2023-03-29T12:32:40.998Z,19.92
2023-03-29T12:33:40.908Z,19.91
2023-03-29T12:34:40.885Z,19.99
2023-03-29T12:35:40.907Z,19.95
2023-03-29T12:36:40.888Z,19.98
2023-03-29T12:37:40.878Z,19.98
2023-03-29T12:38:40.850Z,20.00
2023-03-29T12:39:40.861Z,20.02
2023-03-29T12:40:40.836Z,20.02
2023-03-29T12:41:40.836Z,19.98
2023-03-29T12:42:40.814Z,20.02
2023-03-29T12:43:40.831Z,20.02
2023-03-29T12:44:40.808Z,20.00
2023-03-29T12:45:40.863Z,20.00
2023-03-29T12:46:41.269Z,20.01
2023-03-29T12:47:40.885Z,19.97
2023-03-29T12:48:40.780Z,20.03
2023-03-29T12:49:40.774Z,20.01
2023-03-29T12:50:40.753Z,20.00
2023-03-29T12:51:40.762Z,20.00
2023-03-29T12:52:40.744Z,20.03